sensor_id;sensor_type;location;lat;lon;timestamp;pressure;altitude;pressure_sealevel;temperature;humidity
48553;BME280;34335;51.566;6.994;2022-07-06T00:01:26;101907.19;;;13.98;65.35
48553;BME280;34335;51.566;6.994;2022-07-06T00:03:51;101908.06;;;14.03;63.42
48553;BME280;34335;51.566;6.994;2022-07-06T00:06:17;101910.53;;;13.77;66.63
48553;BME280;34335;51.566;6.994;2022-07-06T00:08:43;101905.50;;;14.22;60.51
48553;BME280;34335;51.566;6.994;2022-07-06T00:11:08;101910.63;;;13.94;65.49
48553;BME280;34335;51.566;6.994;2022-07-06T00:13:34;101900.22;;;14.10;61.60
48553;BME280;34335;51.566;6.994;2022-07-06T00:15:59;101906.41;;;14.27;59.65
48553;BME280;34335;51.566;6.994;2022-07-06T00:18:25;101907.16;;;13.95;62.41
48553;BME280;34335;51.566;6.994;2022-07-06T00:20:50;101907.16;;;14.01;63.47
48553;BME280;34335;51.566;6.994;2022-07-06T00:23:15;101902.78;;;13.93;64.20
48553;BME280;34335;51.566;6.994;2022-07-06T00:25:41;101902.75;;;13.86;62.41
48553;BME280;34335;51.566;6.994;2022-07-06T00:28:06;101906.31;;;14.07;60.88
48553;BME280;34335;51.566;6.994;2022-07-06T00:30:32;101906.31;;;14.02;59.25
48553;BME280;34335;51.566;6.994;2022-07-06T00:32:57;101905.44;;;13.97;60.47
48553;BME280;34335;51.566;6.994;2022-07-06T00:35:26;101906.34;;;14.10;59.15
48553;BME280;34335;51.566;6.994;2022-07-06T00:37:52;101904.31;;;13.56;65.30
48553;BME280;34335;51.566;6.994;2022-07-06T00:40:17;101913.72;;;13.27;66.53
48553;BME280;34335;51.566;6.994;2022-07-06T00:42:46;101906.84;;;13.43;63.88
48553;BME280;34335;51.566;6.994;2022-07-06T00:45:12;101902.44;;;13.34;64.38
48553;BME280;34335;51.566;6.994;2022-07-06T00:47:39;101900.09;;;13.82;60.24
48553;BME280;34335;51.566;6.994;2022-07-06T00:50:05;101906.22;;;13.82;60.78
48553;BME280;34335;51.566;6.994;2022-07-06T00:52:47;101907.84;;;13.57;65.17
48553;BME280;34335;51.566;6.994;2022-07-06T00:55:14;101908.69;;;13.54;63.69
48553;BME280;34335;51.566;6.994;2022-07-06T00:57:41;101908.72;;;13.59;64.06
48553;BME280;34335;51.566;6.994;2022-07-06T01:00:11;101904.25;;;13.41;62.64
48553;BME280;34335;51.566;6.994;2022-07-06T01:02:38;101904.31;;;13.52;66.40
48553;BME280;34335;51.566;6.994;2022-07-06T01:05:04;101911.91;;;13.16;67.86
48553;BME280;34335;51.566;6.994;2022-07-06T01:07:31;101907.53;;;13.17;67.12
48553;BME280;34335;51.566;6.994;2022-07-06T01:09:56;101909.50;;;13.46;61.17
48553;BME280;34335;51.566;6.994;2022-07-06T01:12:22;101909.53;;;13.50;61.15
48553;BME280;34335;51.566;6.994;2022-07-06T01:14:48;101912.81;;;13.28;68.18
48553;BME280;34335;51.566;6.994;2022-07-06T01:17:15;101908.31;;;13.06;69.00
48553;BME280;34335;51.566;6.994;2022-07-06T01:19:41;101911.94;;;13.22;65.35
48553;BME280;34335;51.566;6.994;2022-07-06T01:22:06;101910.25;;;13.32;63.03
48553;BME280;34335;51.566;6.994;2022-07-06T01:24:34;101906.78;;;13.30;63.17
48553;BME280;34335;51.566;6.994;2022-07-06T01:27:00;101910.19;;;13.23;67.45
48553;BME280;34335;51.566;6.994;2022-07-06T01:29:25;101910.19;;;13.23;64.17
48553;BME280;34335;51.566;6.994;2022-07-06T01:31:51;101909.34;;;13.27;63.65
48553;BME280;34335;51.566;6.994;2022-07-06T01:34:17;101903.16;;;13.13;69.39
48553;BME280;34335;51.566;6.994;2022-07-06T01:36:43;101903.91;;;12.98;67.43
48553;BME280;34335;51.566;6.994;2022-07-06T01:39:09;101896.22;;;13.18;62.51
48553;BME280;34335;51.566;6.994;2022-07-06T01:41:35;101904.13;;;13.29;61.04
48553;BME280;34335;51.566;6.994;2022-07-06T01:44:01;101896.88;;;12.90;67.30
48553;BME280;34335;51.566;6.994;2022-07-06T01:46:26;101893.44;;;12.96;65.85
48553;BME280;34335;51.566;6.994;2022-07-06T01:48:52;101893.50;;;13.02;66.37
48553;BME280;34335;51.566;6.994;2022-07-06T01:51:17;101892.47;;;12.82;68.11
48553;BME280;34335;51.566;6.994;2022-07-06T01:53:43;101892.34;;;12.69;70.61
48553;BME280;34335;51.566;6.994;2022-07-06T01:56:09;101893.41;;;12.91;64.49
48553;BME280;34335;51.566;6.994;2022-07-06T01:58:34;101890.69;;;12.77;65.18
48553;BME280;34335;51.566;6.994;2022-07-06T02:01:00;101896.91;;;12.93;63.03
48553;BME280;34335;51.566;6.994;2022-07-06T02:03:25;101890.63;;;12.73;65.27
48553;BME280;34335;51.566;6.994;2022-07-06T02:05:51;101889.03;;;12.89;62.35
48553;BME280;34335;51.566;6.994;2022-07-06T02:08:16;101888.97;;;12.80;65.94
48553;BME280;34335;51.566;6.994;2022-07-06T02:10:42;101894.94;;;12.68;65.86
48553;BME280;34335;51.566;6.994;2022-07-06T02:13:07;101888.06;;;12.77;64.11
48553;BME280;34335;51.566;6.994;2022-07-06T02:15:32;101892.38;;;12.72;63.61
48553;BME280;34335;51.566;6.994;2022-07-06T02:17:58;101894.09;;;12.70;62.70
48553;BME280;34335;51.566;6.994;2022-07-06T02:20:23;101885.41;;;12.74;63.07
48553;BME280;34335;51.566;6.994;2022-07-06T02:22:48;101888.91;;;12.75;61.60
48553;BME280;34335;51.566;6.994;2022-07-06T02:25:14;101891.28;;;12.49;65.25
48553;BME280;34335;51.566;6.994;2022-07-06T02:27:39;101891.28;;;12.49;63.97
48553;BME280;34335;51.566;6.994;2022-07-06T02:30:05;101885.25;;;12.56;62.52
48553;BME280;34335;51.566;6.994;2022-07-06T02:32:31;101884.34;;;12.52;66.92
48553;BME280;34335;51.566;6.994;2022-07-06T02:34:56;101882.44;;;12.37;66.34
48553;BME280;34335;51.566;6.994;2022-07-06T02:37:21;101883.44;;;12.45;63.84
48553;BME280;34335;51.566;6.994;2022-07-06T02:39:47;101885.16;;;12.45;63.14
48553;BME280;34335;51.566;6.994;2022-07-06T02:42:12;101886.84;;;12.41;64.45
48553;BME280;34335;51.566;6.994;2022-07-06T02:44:38;101885.78;;;12.22;67.55
48553;BME280;34335;51.566;6.994;2022-07-06T02:47:03;101880.75;;;12.38;63.68
48553;BME280;34335;51.566;6.994;2022-07-06T02:49:28;101887.72;;;12.42;64.84
48553;BME280;34335;51.566;6.994;2022-07-06T02:51:54;101891.72;;;12.09;72.34
48553;BME280;34335;51.566;6.994;2022-07-06T02:54:19;101893.53;;;12.18;63.96
48553;BME280;34335;51.566;6.994;2022-07-06T02:56:44;101894.22;;;11.99;69.20
48553;BME280;34335;51.566;6.994;2022-07-06T02:59:13;101892.44;;;11.97;67.02
48553;BME280;34335;51.566;6.994;2022-07-06T03:01:38;101898.69;;;12.10;65.24
48553;BME280;34335;51.566;6.994;2022-07-06T03:04:03;101893.44;;;12.05;66.43
48553;BME280;34335;51.566;6.994;2022-07-06T03:06:29;101896.94;;;12.10;64.28
48553;BME280;34335;51.566;6.994;2022-07-06T03:08:54;101895.97;;;12.02;65.33
48553;BME280;34335;51.566;6.994;2022-07-06T03:11:19;101896.69;;;11.92;69.17
48553;BME280;34335;51.566;6.994;2022-07-06T03:13:45;101902.91;;;11.98;68.38
48553;BME280;34335;51.566;6.994;2022-07-06T03:16:10;101907.84;;;11.81;73.02
48553;BME280;34335;51.566;6.994;2022-07-06T03:18:35;101914.81;;;11.81;70.20
48553;BME280;34335;51.566;6.994;2022-07-06T03:21:01;101912.38;;;11.95;68.77
48553;BME280;34335;51.566;6.994;2022-07-06T03:23:29;101921.16;;;11.98;65.34
48553;BME280;34335;51.566;6.994;2022-07-06T03:25:55;101921.03;;;11.92;68.25
48553;BME280;34335;51.566;6.994;2022-07-06T03:28:20;101922.50;;;11.73;69.08
48553;BME280;34335;51.566;6.994;2022-07-06T03:30:45;101915.56;;;11.74;70.40
48553;BME280;34335;51.566;6.994;2022-07-06T03:33:10;101919.06;;;11.74;73.52
48553;BME280;34335;51.566;6.994;2022-07-06T03:35:36;101913.84;;;11.73;75.09
48553;BME280;34335;51.566;6.994;2022-07-06T03:38:01;101913.13;;;11.84;70.87
48553;BME280;34335;51.566;6.994;2022-07-06T03:40:27;101908.69;;;11.77;71.80
48553;BME280;34335;51.566;6.994;2022-07-06T03:42:53;101904.34;;;11.78;70.19
48553;BME280;34335;51.566;6.994;2022-07-06T03:45:18;101909.53;;;11.78;69.42
48553;BME280;34335;51.566;6.994;2022-07-06T03:47:43;101897.38;;;11.78;71.33
48553;BME280;34335;51.566;6.994;2022-07-06T03:50:09;101900.88;;;11.80;75.22
48553;BME280;34335;51.566;6.994;2022-07-06T03:52:35;101898.22;;;11.74;76.71
48553;BME280;34335;51.566;6.994;2022-07-06T03:55:05;101905.13;;;11.72;73.45
48553;BME280;34335;51.566;6.994;2022-07-06T03:57:30;101910.38;;;11.75;76.37
48553;BME280;34335;51.566;6.994;2022-07-06T03:59:56;101907.81;;;11.78;74.02
48553;BME280;34335;51.566;6.994;2022-07-06T04:02:21;101908.69;;;11.80;75.72
48553;BME280;34335;51.566;6.994;2022-07-06T04:04:46;101914.75;;;11.79;77.96
48553;BME280;34335;51.566;6.994;2022-07-06T04:07:11;101913.00;;;11.78;71.98
48553;BME280;34335;51.566;6.994;2022-07-06T04:09:37;101915.78;;;11.91;75.14
48553;BME280;34335;51.566;6.994;2022-07-06T04:12:02;101915.00;;;11.96;70.27
48553;BME280;34335;51.566;6.994;2022-07-06T04:14:28;101916.84;;;12.02;76.98
48553;BME280;34335;51.566;6.994;2022-07-06T04:16:53;101916.00;;;12.03;77.50
48553;BME280;34335;51.566;6.994;2022-07-06T04:19:18;101919.50;;;12.07;75.84
48553;BME280;34335;51.566;6.994;2022-07-06T04:21:44;101918.66;;;12.09;78.42
48553;BME280;34335;51.566;6.994;2022-07-06T04:24:09;101921.38;;;12.19;77.70
48553;BME280;34335;51.566;6.994;2022-07-06T04:26:35;101918.81;;;12.23;76.64
48553;BME280;34335;51.566;6.994;2022-07-06T04:29:00;101916.31;;;12.31;76.80
48553;BME280;34335;51.566;6.994;2022-07-06T04:31:25;101918.91;;;12.29;77.17
48553;BME280;34335;51.566;6.994;2022-07-06T04:33:51;101914.50;;;12.27;78.06
48553;BME280;34335;51.566;6.994;2022-07-06T04:36:16;101918.06;;;12.32;77.51
48553;BME280;34335;51.566;6.994;2022-07-06T04:38:41;101915.47;;;12.32;76.54
48553;BME280;34335;51.566;6.994;2022-07-06T04:41:07;101915.50;;;12.35;74.10
48553;BME280;34335;51.566;6.994;2022-07-06T04:43:32;101915.50;;;12.37;76.66
48553;BME280;34335;51.566;6.994;2022-07-06T04:45:57;101910.34;;;12.43;77.40
48553;BME280;34335;51.566;6.994;2022-07-06T04:48:23;101913.03;;;12.51;76.60
48553;BME280;34335;51.566;6.994;2022-07-06T04:50:48;101915.69;;;12.54;77.72
48553;BME280;34335;51.566;6.994;2022-07-06T04:53:14;101908.81;;;12.63;75.46
48553;BME280;34335;51.566;6.994;2022-07-06T04:55:39;101904.44;;;12.61;77.60
48553;BME280;34335;51.566;6.994;2022-07-06T04:58:04;101911.50;;;12.71;77.21
48553;BME280;34335;51.566;6.994;2022-07-06T05:00:30;101911.44;;;12.65;76.89
48553;BME280;34335;51.566;6.994;2022-07-06T05:02:56;101911.47;;;12.67;77.47
48553;BME280;34335;51.566;6.994;2022-07-06T05:05:22;101910.56;;;12.66;74.69
48553;BME280;34335;51.566;6.994;2022-07-06T05:07:47;101905.50;;;12.82;76.60
48553;BME280;34335;51.566;6.994;2022-07-06T05:10:13;101899.22;;;12.61;78.19
48553;BME280;34335;51.566;6.994;2022-07-06T05:12:38;101902.81;;;12.72;77.58
48553;BME280;34335;51.566;6.994;2022-07-06T05:15:04;101908.22;;;12.94;76.77
48553;BME280;34335;51.566;6.994;2022-07-06T05:17:29;101903.75;;;12.82;77.10
48553;BME280;34335;51.566;6.994;2022-07-06T05:19:55;101911.72;;;12.93;77.99
48553;BME280;34335;51.566;6.994;2022-07-06T05:22:20;101914.44;;;13.07;74.74
48553;BME280;34335;51.566;6.994;2022-07-06T05:24:46;101913.56;;;13.11;74.86
48553;BME280;34335;51.566;6.994;2022-07-06T05:27:11;101913.66;;;13.19;76.82
48553;BME280;34335;51.566;6.994;2022-07-06T05:29:36;101920.66;;;13.24;76.55
48553;BME280;34335;51.566;6.994;2022-07-06T05:32:02;101923.28;;;13.24;74.60
48553;BME280;34335;51.566;6.994;2022-07-06T05:34:28;101924.13;;;13.25;76.39
48553;BME280;34335;51.566;6.994;2022-07-06T05:36:54;101913.66;;;13.20;77.14
48553;BME280;34335;51.566;6.994;2022-07-06T05:39:20;101923.34;;;13.35;75.50
48553;BME280;34335;51.566;6.994;2022-07-06T05:41:47;101924.31;;;13.47;75.36
48553;BME280;34335;51.566;6.994;2022-07-06T05:44:13;101927.81;;;13.52;76.02
48553;BME280;34335;51.566;6.994;2022-07-06T05:46:38;101920.84;;;13.46;75.77
48553;BME280;34335;51.566;6.994;2022-07-06T05:49:03;101918.31;;;13.60;73.60
48553;BME280;34335;51.566;6.994;2022-07-06T05:51:47;101937.50;;;13.65;74.78
48553;BME280;34335;51.566;6.994;2022-07-06T05:54:12;101941.94;;;13.82;75.56
48553;BME280;34335;51.566;6.994;2022-07-06T05:56:38;101938.44;;;13.77;74.03
48553;BME280;34335;51.566;6.994;2022-07-06T05:59:03;101944.44;;;13.62;75.85
48553;BME280;34335;51.566;6.994;2022-07-06T06:01:28;101948.88;;;13.72;75.54
48553;BME280;34335;51.566;6.994;2022-07-06T06:03:54;101952.44;;;13.91;74.78
48553;BME280;34335;51.566;6.994;2022-07-06T06:06:19;101948.13;;;13.92;73.75
48553;BME280;34335;51.566;6.994;2022-07-06T06:08:44;101950.81;;;14.10;73.21
48553;BME280;34335;51.566;6.994;2022-07-06T06:11:10;101944.69;;;14.10;73.70
48553;BME280;34335;51.566;6.994;2022-07-06T06:13:35;101954.31;;;14.15;73.24
48553;BME280;34335;51.566;6.994;2022-07-06T06:16:00;101956.09;;;14.18;73.63
48553;BME280;34335;51.566;6.994;2022-07-06T06:18:26;101957.81;;;14.22;73.94
48553;BME280;34335;51.566;6.994;2022-07-06T06:20:51;101961.31;;;14.21;73.13
48553;BME280;34335;51.566;6.994;2022-07-06T06:23:17;101950.94;;;14.46;71.06
48553;BME280;34335;51.566;6.994;2022-07-06T06:25:42;101947.44;;;14.47;72.38
48553;BME280;34335;51.566;6.994;2022-07-06T06:28:10;101951.81;;;14.57;72.30
48553;BME280;34335;51.566;6.994;2022-07-06T06:30:36;101947.47;;;14.56;71.92
48553;BME280;34335;51.566;6.994;2022-07-06T06:33:12;101944.81;;;14.39;71.94
48553;BME280;34335;51.566;6.994;2022-07-06T06:35:42;101948.31;;;14.46;72.04
48553;BME280;34335;51.566;6.994;2022-07-06T06:38:08;101950.06;;;14.50;71.95
48553;BME280;34335;51.566;6.994;2022-07-06T06:40:33;101956.22;;;14.64;71.82
48553;BME280;34335;51.566;6.994;2022-07-06T06:42:59;101951.94;;;14.85;71.72
48553;BME280;34335;51.566;6.994;2022-07-06T06:45:24;101948.41;;;14.77;71.03
48553;BME280;34335;51.566;6.994;2022-07-06T06:47:49;101944.06;;;14.99;71.25
48553;BME280;34335;51.566;6.994;2022-07-06T06:50:15;101944.94;;;15.14;70.11
48553;BME280;34335;51.566;6.994;2022-07-06T06:52:40;101950.16;;;15.00;70.23
48553;BME280;34335;51.566;6.994;2022-07-06T06:55:06;101947.53;;;15.27;70.09
48553;BME280;34335;51.566;6.994;2022-07-06T06:57:31;101959.78;;;15.38;69.33
48553;BME280;34335;51.566;6.994;2022-07-06T06:59:56;101968.50;;;15.46;68.85
48553;BME280;34335;51.566;6.994;2022-07-06T07:02:22;101965.00;;;15.47;68.50
48553;BME280;34335;51.566;6.994;2022-07-06T07:04:48;101960.56;;;15.74;67.31
48553;BME280;34335;51.566;6.994;2022-07-06T07:07:13;101959.72;;;15.69;67.36
48553;BME280;34335;51.566;6.994;2022-07-06T07:09:38;101958.84;;;15.84;68.83
48553;BME280;34335;51.566;6.994;2022-07-06T07:12:04;101962.28;;;16.04;66.72
48553;BME280;34335;51.566;6.994;2022-07-06T07:14:30;101963.22;;;15.89;66.42
48553;BME280;34335;51.566;6.994;2022-07-06T07:16:55;101970.13;;;16.08;65.88
48553;BME280;34335;51.566;6.994;2022-07-06T07:19:20;101973.59;;;16.11;65.59
48553;BME280;34335;51.566;6.994;2022-07-06T07:21:45;101972.72;;;16.12;65.08
48553;BME280;34335;51.566;6.994;2022-07-06T07:24:11;101978.88;;;16.10;66.16
48553;BME280;34335;51.566;6.994;2022-07-06T07:26:36;101974.50;;;16.10;65.15
48553;BME280;34335;51.566;6.994;2022-07-06T07:29:02;101976.22;;;16.11;64.40
48553;BME280;34335;51.566;6.994;2022-07-06T07:31:28;101973.59;;;16.19;62.80
48553;BME280;34335;51.566;6.994;2022-07-06T07:33:53;101981.44;;;16.30;62.87
48553;BME280;34335;51.566;6.994;2022-07-06T07:36:22;101974.28;;;16.55;62.56
48553;BME280;34335;51.566;6.994;2022-07-06T07:38:47;101974.16;;;16.75;61.94
48553;BME280;34335;51.566;6.994;2022-07-06T07:41:13;101970.38;;;17.18;61.92
48553;BME280;34335;51.566;6.994;2022-07-06T07:43:39;101971.28;;;17.16;60.64
48553;BME280;34335;51.566;6.994;2022-07-06T07:46:04;101974.72;;;17.21;59.49
48553;BME280;34335;51.566;6.994;2022-07-06T07:48:29;101979.00;;;17.36;59.22
48553;BME280;34335;51.566;6.994;2022-07-06T07:50:55;101973.72;;;17.36;58.25
48553;BME280;34335;51.566;6.994;2022-07-06T07:53:20;101977.97;;;17.54;58.95
48553;BME280;34335;51.566;6.994;2022-07-06T07:55:45;101982.25;;;17.61;58.07
48553;BME280;34335;51.566;6.994;2022-07-06T07:58:10;101979.47;;;17.76;58.08
48553;BME280;34335;51.566;6.994;2022-07-06T08:00:36;101979.41;;;17.81;57.72
48553;BME280;34335;51.566;6.994;2022-07-06T08:03:02;101976.03;;;17.71;58.70
48553;BME280;34335;51.566;6.994;2022-07-06T08:05:27;101969.63;;;17.92;57.05
48553;BME280;34335;51.566;6.994;2022-07-06T08:07:52;101972.56;;;17.68;57.28
48553;BME280;34335;51.566;6.994;2022-07-06T08:10:19;101967.25;;;17.72;57.23
48553;BME280;34335;51.566;6.994;2022-07-06T08:12:44;101971.94;;;18.24;57.67
48553;BME280;34335;51.566;6.994;2022-07-06T08:15:09;101977.25;;;18.19;56.22
48553;BME280;34335;51.566;6.994;2022-07-06T08:17:35;101974.88;;;17.96;54.38
48553;BME280;34335;51.566;6.994;2022-07-06T08:20:00;101975.22;;;17.65;56.06
48553;BME280;34335;51.566;6.994;2022-07-06T08:22:26;101975.94;;;17.79;56.05
48553;BME280;34335;51.566;6.994;2022-07-06T08:24:52;101965.75;;;18.26;55.03
48553;BME280;34335;51.566;6.994;2022-07-06T08:27:17;101966.13;;;18.62;56.37
48553;BME280;34335;51.566;6.994;2022-07-06T08:29:42;101966.25;;;18.53;55.32
48553;BME280;34335;51.566;6.994;2022-07-06T08:32:08;101971.75;;;17.58;56.92
48553;BME280;34335;51.566;6.994;2022-07-06T08:34:33;101970.94;;;17.53;57.23
48553;BME280;34335;51.566;6.994;2022-07-06T08:36:58;101974.38;;;17.61;56.33
48553;BME280;34335;51.566;6.994;2022-07-06T08:39:24;101971.16;;;18.15;55.65
48553;BME280;34335;51.566;6.994;2022-07-06T08:41:50;101970.13;;;18.27;55.97
48553;BME280;34335;51.566;6.994;2022-07-06T08:44:16;101959.06;;;18.64;55.90
48553;BME280;34335;51.566;6.994;2022-07-06T08:46:42;101957.91;;;19.39;53.20
48553;BME280;34335;51.566;6.994;2022-07-06T08:49:12;101959.06;;;19.22;51.41
48553;BME280;34335;51.566;6.994;2022-07-06T08:51:38;101973.16;;;18.63;53.01
48553;BME280;34335;51.566;6.994;2022-07-06T08:54:04;101959.47;;;18.99;53.21
48553;BME280;34335;51.566;6.994;2022-07-06T08:56:29;101957.47;;;19.64;54.64
48553;BME280;34335;51.566;6.994;2022-07-06T08:58:55;101957.53;;;19.10;53.74
48553;BME280;34335;51.566;6.994;2022-07-06T09:01:21;101971.78;;;18.34;54.44
48553;BME280;34335;51.566;6.994;2022-07-06T09:03:49;101970.63;;;18.56;52.13
48553;BME280;34335;51.566;6.994;2022-07-06T09:06:16;101970.94;;;18.96;51.10
48553;BME280;34335;51.566;6.994;2022-07-06T09:08:44;101979.56;;;18.44;53.21
48553;BME280;34335;51.566;6.994;2022-07-06T09:11:10;101971.09;;;18.84;53.14
48553;BME280;34335;51.566;6.994;2022-07-06T09:13:35;101969.44;;;19.33;51.78
48553;BME280;34335;51.566;6.994;2022-07-06T09:16:11;101973.28;;;18.54;52.80
48553;BME280;34335;51.566;6.994;2022-07-06T09:18:38;101962.75;;;19.13;54.94
48553;BME280;34335;51.566;6.994;2022-07-06T09:21:05;101963.44;;;19.23;54.38
48553;BME280;34335;51.566;6.994;2022-07-06T09:23:30;101962.75;;;19.64;54.56
48553;BME280;34335;51.566;6.994;2022-07-06T09:25:56;101964.19;;;19.33;51.79
48553;BME280;34335;51.566;6.994;2022-07-06T09:28:21;101965.63;;;18.99;52.21
48553;BME280;34335;51.566;6.994;2022-07-06T09:30:46;101961.38;;;19.41;50.91
48553;BME280;34335;51.566;6.994;2022-07-06T09:33:17;101962.50;;;19.76;50.95
48553;BME280;34335;51.566;6.994;2022-07-06T09:35:42;101960.78;;;19.25;50.70
48553;BME280;34335;51.566;6.994;2022-07-06T09:38:14;101955.59;;;19.22;49.69
48553;BME280;34335;51.566;6.994;2022-07-06T09:40:41;101955.16;;;18.93;49.76
48553;BME280;34335;51.566;6.994;2022-07-06T09:43:08;101953.25;;;19.02;53.39
48553;BME280;34335;51.566;6.994;2022-07-06T09:45:38;101960.16;;;18.51;52.64
48553;BME280;34335;51.566;6.994;2022-07-06T09:48:10;101959.13;;;18.61;51.74
48553;BME280;34335;51.566;6.994;2022-07-06T09:50:43;101954.66;;;19.24;51.09
48553;BME280;34335;51.566;6.994;2022-07-06T09:53:09;101969.16;;;18.34;51.39
48553;BME280;34335;51.566;6.994;2022-07-06T09:55:35;101956.75;;;19.04;53.75
48553;BME280;34335;51.566;6.994;2022-07-06T09:58:00;101966.38;;;19.06;52.96
48553;BME280;34335;51.566;6.994;2022-07-06T10:00:25;101968.63;;;19.29;52.78
48553;BME280;34335;51.566;6.994;2022-07-06T10:02:51;101961.09;;;19.08;51.02
48553;BME280;34335;51.566;6.994;2022-07-06T10:05:17;101961.72;;;20.16;51.20
48553;BME280;34335;51.566;6.994;2022-07-06T10:07:45;101957.19;;;19.77;48.12
48553;BME280;34335;51.566;6.994;2022-07-06T10:10:15;101952.69;;;20.66;47.80
48553;BME280;34335;51.566;6.994;2022-07-06T10:12:42;101953.06;;;21.59;48.66
48553;BME280;34335;51.566;6.994;2022-07-06T10:15:10;101952.22;;;21.22;46.41
48553;BME280;34335;51.566;6.994;2022-07-06T10:17:37;101960.59;;;20.27;44.34
48553;BME280;34335;51.566;6.994;2022-07-06T10:20:04;101957.84;;;20.33;45.61
48553;BME280;34335;51.566;6.994;2022-07-06T10:22:30;101954.91;;;20.84;45.55
48553;BME280;34335;51.566;6.994;2022-07-06T10:24:56;101948.53;;;20.55;46.33
48553;BME280;34335;51.566;6.994;2022-07-06T10:27:23;101957.38;;;20.53;47.12
48553;BME280;34335;51.566;6.994;2022-07-06T10:29:49;101952.56;;;20.70;43.98
48553;BME280;34335;51.566;6.994;2022-07-06T10:32:18;101953.44;;;21.10;45.62
48553;BME280;34335;51.566;6.994;2022-07-06T10:34:44;101958.75;;;19.89;47.70
48553;BME280;34335;51.566;6.994;2022-07-06T10:37:23;101956.72;;;21.53;48.24
48553;BME280;34335;51.566;6.994;2022-07-06T10:39:49;101957.28;;;21.66;42.79
48553;BME280;34335;51.566;6.994;2022-07-06T10:45:04;101945.06;;;21.92;45.35
48553;BME280;34335;51.566;6.994;2022-07-06T10:47:30;101942.78;;;22.09;41.15
48553;BME280;34335;51.566;6.994;2022-07-06T10:50:00;101941.59;;;22.20;40.38
48553;BME280;34335;51.566;6.994;2022-07-06T10:52:48;101934.81;;;22.39;44.49
48553;BME280;34335;51.566;6.994;2022-07-06T10:55:32;101936.63;;;22.39;40.74
48553;BME280;34335;51.566;6.994;2022-07-06T10:57:57;101948.91;;;22.12;41.89
48553;BME280;34335;51.566;6.994;2022-07-06T11:00:23;101955.59;;;22.25;44.36
48553;BME280;34335;51.566;6.994;2022-07-06T11:02:48;101941.84;;;21.81;44.14
48553;BME280;34335;51.566;6.994;2022-07-06T11:05:43;101943.50;;;21.19;43.33
48553;BME280;34335;51.566;6.994;2022-07-06T11:08:09;101949.94;;;21.43;46.46
48553;BME280;34335;51.566;6.994;2022-07-06T11:10:46;101941.28;;;22.01;44.70
48553;BME280;34335;51.566;6.994;2022-07-06T11:13:28;101948.44;;;21.67;43.06
48553;BME280;34335;51.566;6.994;2022-07-06T11:16:01;101933.09;;;22.38;41.33
48553;BME280;34335;51.566;6.994;2022-07-06T11:18:39;101949.94;;;21.76;45.11
48553;BME280;34335;51.566;6.994;2022-07-06T11:21:21;101947.66;;;21.62;45.44
48553;BME280;34335;51.566;6.994;2022-07-06T11:23:48;101943.25;;;21.62;45.87
48553;BME280;34335;51.566;6.994;2022-07-06T11:26:15;101943.81;;;22.05;44.75
48553;BME280;34335;51.566;6.994;2022-07-06T11:28:41;101937.22;;;22.49;43.92
48553;BME280;34335;51.566;6.994;2022-07-06T11:31:07;101936.31;;;22.77;43.44
48553;BME280;34335;51.566;6.994;2022-07-06T11:33:33;101939.06;;;22.17;40.68
48553;BME280;34335;51.566;6.994;2022-07-06T11:36:19;101922.56;;;22.92;42.52
48553;BME280;34335;51.566;6.994;2022-07-06T11:38:46;101925.28;;;23.16;40.50
48553;BME280;34335;51.566;6.994;2022-07-06T11:41:12;101922.59;;;23.43;39.91
48553;BME280;34335;51.566;6.994;2022-07-06T11:43:43;101923.38;;;22.67;41.12
48553;BME280;34335;51.566;6.994;2022-07-06T11:48:58;101925.91;;;22.44;39.57
48553;BME280;34335;51.566;6.994;2022-07-06T11:51:25;101923.66;;;22.58;41.65
48553;BME280;34335;51.566;6.994;2022-07-06T11:53:53;101922.50;;;22.40;40.02
48553;BME280;34335;51.566;6.994;2022-07-06T11:56:19;101922.03;;;23.08;41.37
48553;BME280;34335;51.566;6.994;2022-07-06T11:58:49;101915.91;;;23.06;40.36
48553;BME280;34335;51.566;6.994;2022-07-06T12:01:14;101920.00;;;22.62;42.57
48553;BME280;34335;51.566;6.994;2022-07-06T12:03:40;101924.50;;;21.70;41.21
48553;BME280;34335;51.566;6.994;2022-07-06T12:06:13;101917.53;;;22.56;42.90
48553;BME280;34335;51.566;6.994;2022-07-06T12:08:43;101917.56;;;22.83;40.54
48553;BME280;34335;51.566;6.994;2022-07-06T12:11:09;101917.09;;;23.49;38.85
48553;BME280;34335;51.566;6.994;2022-07-06T12:13:38;101904.09;;;23.89;39.97
48553;BME280;34335;51.566;6.994;2022-07-06T12:16:11;101905.78;;;23.68;41.46
48553;BME280;34335;51.566;6.994;2022-07-06T12:18:38;101899.75;;;24.34;36.80
48553;BME280;34335;51.566;6.994;2022-07-06T12:21:04;101895.50;;;24.95;37.29
48553;BME280;34335;51.566;6.994;2022-07-06T12:23:39;101884.31;;;24.64;36.24
48553;BME280;34335;51.566;6.994;2022-07-06T12:26:04;101891.22;;;23.30;37.26
48553;BME280;34335;51.566;6.994;2022-07-06T12:28:30;101884.66;;;24.56;39.44
48553;BME280;34335;51.566;6.994;2022-07-06T12:30:55;101891.75;;;23.88;36.95
48553;BME280;34335;51.566;6.994;2022-07-06T12:33:20;101893.47;;;23.89;37.80
48553;BME280;34335;51.566;6.994;2022-07-06T12:35:46;101878.06;;;23.75;36.14
48553;BME280;34335;51.566;6.994;2022-07-06T12:38:11;101869.69;;;24.09;36.02
48553;BME280;34335;51.566;6.994;2022-07-06T12:40:37;101870.84;;;23.31;40.92
48553;BME280;34335;51.566;6.994;2022-07-06T12:43:03;101868.31;;;23.01;39.28
48553;BME280;34335;51.566;6.994;2022-07-06T12:45:30;101865.75;;;24.20;38.17
48553;BME280;34335;51.566;6.994;2022-07-06T12:48:03;101868.03;;;22.83;38.66
48553;BME280;34335;51.566;6.994;2022-07-06T12:50:34;101867.19;;;23.33;40.42
48553;BME280;34335;51.566;6.994;2022-07-06T12:53:00;101867.28;;;23.79;38.94